createdAt,value
2022-08-12T00:00:10.840Z,15.42
2022-08-12T00:02:56.347Z,14.07
2022-08-12T00:06:01.931Z,15.34
2022-08-12T00:08:48.105Z,13.54
2022-08-12T00:11:33.685Z,15.17
2022-08-12T00:14:19.093Z,14.57
2022-08-12T00:17:06.470Z,15.18
2022-08-12T00:19:52.075Z,15.12
2022-08-12T00:22:38.616Z,14.90
2022-08-12T00:26:01.392Z,14.93
2022-08-12T00:28:30.709Z,15.04
2022-08-12T00:31:16.729Z,14.03
2022-08-12T00:34:03.624Z,14.97
2022-08-12T00:36:51.331Z,14.94
2022-08-12T00:39:37.145Z,13.94
2022-08-12T00:42:10.814Z,14.81
2022-08-12T00:44:40.089Z,13.81
2022-08-12T00:47:09.432Z,14.46
2022-08-12T00:49:55.683Z,14.21
2022-08-12T00:52:25.305Z,14.73
2022-08-12T00:54:57.120Z,14.66
2022-08-12T00:57:27.091Z,14.69
2022-08-12T00:59:57.409Z,14.23
2022-08-12T01:02:26.896Z,14.65
2022-08-12T01:05:15.869Z,14.44
2022-08-12T01:08:02.773Z,14.31
2022-08-12T01:10:50.365Z,14.40
2022-08-12T01:13:20.624Z,14.53
2022-08-12T01:15:51.777Z,14.51
2022-08-12T01:18:21.564Z,12.81
2022-08-12T01:21:00.711Z,13.82
2022-08-12T01:23:50.187Z,13.58
2022-08-12T01:26:21.233Z,14.41
2022-08-12T01:28:51.062Z,14.38
2022-08-12T01:31:20.296Z,14.17
2022-08-12T01:33:59.744Z,14.33
2022-08-12T01:36:29.316Z,14.31
2022-08-12T01:39:00.050Z,13.31
2022-08-12T01:41:32.523Z,13.59
2022-08-12T01:44:02.310Z,14.25
2022-08-12T01:46:42.896Z,13.20
2022-08-12T01:49:32.895Z,14.01
2022-08-12T01:52:21.312Z,14.03
2022-08-12T01:54:51.136Z,14.11
2022-08-12T01:57:59.064Z,13.91
2022-08-12T02:00:19.492Z,13.07
2022-08-12T02:03:03.473Z,13.99
2022-08-12T02:06:01.282Z,13.35
2022-08-12T02:08:52.542Z,13.77
2022-08-12T02:11:24.070Z,13.95
2022-08-12T02:14:06.737Z,13.76
2022-08-12T02:16:51.672Z,13.88
2022-08-12T02:19:50.414Z,13.82
2022-08-12T02:22:28.534Z,13.79
2022-08-12T02:25:04.576Z,13.10
2022-08-12T02:27:39.361Z,13.76
2022-08-12T02:30:11.708Z,12.48
2022-08-12T02:32:41.812Z,13.72
2022-08-12T02:35:14.866Z,13.70
2022-08-12T02:37:45.410Z,12.50
2022-08-12T02:40:15.428Z,13.64
2022-08-12T02:42:51.349Z,12.79
2022-08-12T02:45:26.852Z,13.28
2022-08-12T02:48:00.898Z,12.28
2022-08-12T02:50:32.467Z,12.35
2022-08-12T02:53:01.104Z,13.07
2022-08-12T02:55:34.865Z,13.52
2022-08-12T02:58:06.968Z,13.48
2022-08-12T03:00:39.665Z,13.09
2022-08-12T03:03:09.090Z,13.05
2022-08-12T03:05:44.326Z,13.34
2022-08-12T03:08:19.097Z,13.40
2022-08-12T03:11:04.732Z,13.02
2022-08-12T03:13:43.147Z,13.34
2022-08-12T03:16:12.791Z,12.35
2022-08-12T03:18:45.804Z,13.31
2022-08-12T03:21:52.780Z,13.09
2022-08-12T03:24:09.192Z,11.66
2022-08-12T03:26:38.028Z,12.47
2022-08-12T03:29:09.637Z,13.24
2022-08-12T03:31:39.251Z,11.91
2022-08-12T03:34:10.542Z,12.44
2022-08-12T03:36:40.353Z,12.97
2022-08-12T03:39:35.638Z,13.16
2022-08-12T03:42:38.404Z,12.78
2022-08-12T03:45:32.373Z,13.08
2022-08-12T03:48:27.723Z,13.05
2022-08-12T03:51:14.094Z,12.12
2022-08-12T03:54:00.602Z,13.03
2022-08-12T03:56:46.031Z,13.01
2022-08-12T03:59:32.315Z,12.98
2022-08-12T04:02:00.407Z,12.39
2022-08-12T04:04:34.693Z,12.96
2022-08-12T04:07:03.728Z,12.74
2022-08-12T04:09:31.815Z,12.94
2022-08-12T04:12:17.129Z,12.66
2022-08-12T04:14:45.434Z,12.90
2022-08-12T04:17:14.386Z,12.63
2022-08-12T04:19:44.042Z,12.89
2022-08-12T04:22:12.518Z,12.89
2022-08-12T04:24:41.609Z,11.26
2022-08-12T04:27:12.502Z,12.40
2022-08-12T04:30:16.726Z,12.91
2022-08-12T04:32:28.921Z,12.92
2022-08-12T04:34:58.870Z,12.82
2022-08-12T04:37:26.899Z,12.81
2022-08-12T04:39:55.199Z,12.79
2022-08-12T04:42:23.724Z,13.01
2022-08-12T04:44:51.539Z,13.04
2022-08-12T04:47:21.772Z,13.06
2022-08-12T04:49:49.700Z,13.10
2022-08-12T04:52:19.574Z,13.24
2022-08-12T04:54:49.197Z,13.74
2022-08-12T04:57:17.018Z,14.46
2022-08-12T04:59:48.247Z,15.11
2022-08-12T05:02:21.534Z,15.57
2022-08-12T05:04:52.327Z,15.73
2022-08-12T05:07:24.116Z,16.52
2022-08-12T05:10:00.630Z,17.00
2022-08-12T05:12:38.440Z,17.44
2022-08-12T05:15:19.770Z,17.65
2022-08-12T05:18:00.133Z,18.06
2022-08-12T05:20:45.040Z,18.11
2022-08-12T05:23:17.884Z,19.00
2022-08-12T05:25:47.494Z,19.54
2022-08-12T05:28:16.196Z,20.04
2022-08-12T05:30:46.679Z,20.52
2022-08-12T05:33:15.456Z,20.64
2022-08-12T05:35:45.691Z,21.05
2022-08-12T05:38:34.137Z,21.90
2022-08-12T05:41:03.296Z,22.57
2022-08-12T05:43:31.195Z,23.14
2022-08-12T05:45:58.974Z,23.75
2022-08-12T05:48:27.420Z,24.29
2022-08-12T05:50:56.650Z,24.71
2022-08-12T05:53:25.763Z,25.41
2022-08-12T05:55:54.756Z,26.01
2022-08-12T05:58:22.516Z,26.59
2022-08-12T06:00:50.342Z,27.12
2022-08-12T06:03:19.724Z,27.70
2022-08-12T06:05:54.819Z,28.36
2022-08-12T06:08:26.448Z,28.95
2022-08-12T06:10:56.979Z,29.67
2022-08-12T06:13:28.008Z,30.27
2022-08-12T06:16:14.332Z,30.95
2022-08-12T06:18:43.075Z,31.53
2022-08-12T06:21:12.215Z,32.19
2022-08-12T06:23:42.803Z,32.54
2022-08-12T06:26:12.699Z,33.01
2022-08-12T06:28:41.305Z,33.65
2022-08-12T06:31:25.851Z,34.25
2022-08-12T06:34:52.846Z,34.85
2022-08-12T06:36:44.180Z,35.37
2022-08-12T06:39:15.458Z,35.84
2022-08-12T06:42:32.061Z,36.45
2022-08-12T06:44:50.436Z,37.21
2022-08-12T06:47:19.338Z,37.58
2022-08-12T06:49:49.465Z,37.95
2022-08-12T06:52:19.242Z,38.48
2022-08-12T06:54:48.355Z,39.00
2022-08-12T06:58:05.548Z,39.48
2022-08-12T07:00:05.602Z,39.78
2022-08-12T07:02:36.886Z,40.20
2022-08-12T07:05:05.526Z,40.71
2022-08-12T07:07:33.262Z,41.24
2022-08-12T07:10:07.402Z,41.74
2022-08-12T07:12:36.755Z,42.11
2022-08-12T07:15:05.354Z,42.10
2022-08-12T07:17:37.247Z,42.40
2022-08-12T07:20:09.981Z,42.77
2022-08-12T07:22:39.649Z,42.98
2022-08-12T07:25:27.271Z,43.25
2022-08-12T07:27:55.352Z,43.30
2022-08-12T07:30:23.817Z,43.06
2022-08-12T07:32:52.213Z,43.34
2022-08-12T07:35:20.858Z,43.67
2022-08-12T07:37:50.326Z,43.86
2022-08-12T07:40:20.171Z,44.27
2022-08-12T07:42:48.411Z,44.98
2022-08-12T07:45:16.243Z,45.25
2022-08-12T07:47:44.795Z,45.13
2022-08-12T07:50:13.842Z,45.67
2022-08-12T07:52:44.320Z,45.99
2022-08-12T07:55:12.995Z,45.62
2022-08-12T07:57:53.471Z,45.05
2022-08-12T08:00:21.757Z,44.88
2022-08-12T08:02:50.297Z,44.65
2022-08-12T08:05:19.392Z,44.75
2022-08-12T08:07:48.093Z,45.40
2022-08-12T08:10:16.774Z,46.03
2022-08-12T08:12:58.026Z,46.16
2022-08-12T08:16:00.782Z,45.99
2022-08-12T08:18:26.920Z,46.55
2022-08-12T08:20:57.181Z,47.47
2022-08-12T08:23:56.524Z,48.59
2022-08-12T08:26:27.194Z,49.85
2022-08-12T08:28:55.153Z,50.68
2022-08-12T08:31:24.221Z,51.36
2022-08-12T08:34:01.358Z,51.36
2022-08-12T08:36:43.565Z,51.40
2022-08-12T08:39:14.569Z,51.37
2022-08-12T08:42:16.030Z,51.98
2022-08-12T08:44:49.805Z,52.66
2022-08-12T08:47:27.291Z,53.20
2022-08-12T08:50:00.816Z,53.66
2022-08-12T08:52:39.374Z,54.04
2022-08-12T08:55:10.144Z,54.49
2022-08-12T08:57:42.873Z,54.84
2022-08-12T09:03:04.427Z,52.62
2022-08-12T09:06:03.001Z,52.50
2022-08-12T09:08:31.005Z,51.96
2022-08-12T09:12:07.024Z,51.58
2022-08-12T09:14:11.852Z,51.00
2022-08-12T09:16:42.569Z,50.77
2022-08-12T09:19:27.412Z,51.24
2022-08-12T09:21:57.220Z,51.36
2022-08-12T09:24:28.129Z,50.78
2022-08-12T09:26:58.983Z,51.19
2022-08-12T09:30:08.801Z,51.95
2022-08-12T09:32:56.129Z,51.52
2022-08-12T09:35:03.751Z,51.34
2022-08-12T09:37:58.591Z,51.37
2022-08-12T09:41:03.860Z,51.05
2022-08-12T09:43:26.572Z,49.79
2022-08-12T09:46:11.550Z,48.34
2022-08-12T09:48:56.447Z,48.13
2022-08-12T09:51:37.565Z,48.25
2022-08-12T09:54:30.883Z,49.54
2022-08-12T09:57:00.873Z,50.70
2022-08-12T10:00:13.023Z,50.90
2022-08-12T10:02:44.095Z,50.35
2022-08-12T10:05:13.701Z,50.34
2022-08-12T10:07:43.194Z,49.76
2022-08-12T10:10:22.939Z,49.35
2022-08-12T10:13:34.869Z,49.93
2022-08-12T10:16:05.528Z,49.79
2022-08-12T10:18:35.497Z,50.68
2022-08-12T10:21:07.740Z,51.07
2022-08-12T10:23:39.962Z,50.61
2022-08-12T10:26:36.891Z,51.15
2022-08-12T10:30:37.510Z,51.61
2022-08-12T10:32:21.246Z,50.14
2022-08-12T10:34:53.576Z,49.54
2022-08-12T10:38:33.283Z,50.33
2022-08-12T10:40:20.510Z,51.78
2022-08-12T10:43:08.359Z,52.52
2022-08-12T10:45:38.380Z,52.94
2022-08-12T10:48:21.357Z,51.14
2022-08-12T10:51:02.612Z,49.55
2022-08-12T10:53:44.164Z,48.82
2022-08-12T10:56:16.455Z,49.01
2022-08-12T11:04:32.099Z,50.95
2022-08-12T11:04:49.186Z,51.30
2022-08-12T11:08:33.577Z,49.63
2022-08-12T11:10:07.573Z,48.15
2022-08-12T11:13:45.862Z,46.85
2022-08-12T11:17:42.690Z,46.86
2022-08-12T11:20:51.998Z,47.18
2022-08-12T11:23:25.018Z,48.42
2022-08-12T11:26:06.522Z,49.77
2022-08-12T11:28:37.814Z,51.31
2022-08-12T11:31:14.533Z,51.22
2022-08-12T12:06:00.587Z,34.36
2022-08-12T12:12:49.927Z,32.44
2022-08-12T12:15:45.171Z,32.24
2022-08-12T12:18:57.327Z,31.94
2022-08-12T12:21:57.653Z,33.64
2022-08-12T12:28:36.914Z,32.40
2022-08-12T12:32:11.525Z,31.28
2022-08-12T12:35:13.798Z,31.21
2022-08-12T12:38:48.495Z,30.69
2022-08-12T12:41:22.351Z,31.48
2022-08-12T12:44:50.831Z,32.36
2022-08-12T12:47:31.724Z,31.02
2022-08-12T12:50:34.914Z,30.70
2022-08-12T12:57:00.556Z,31.41
2022-08-12T13:00:16.317Z,30.67
2022-08-12T13:03:00.875Z,30.53
2022-08-12T13:06:12.445Z,31.71
2022-08-12T13:09:11.143Z,31.45
2022-08-12T13:12:33.923Z,31.51
2022-08-12T13:15:45.432Z,29.87
2022-08-12T13:18:28.423Z,29.89
2022-08-12T13:21:05.266Z,30.81
2022-08-12T13:23:50.367Z,29.94
2022-08-12T13:26:46.066Z,30.25
2022-08-12T13:29:45.104Z,31.39
2022-08-12T13:32:31.340Z,30.01
2022-08-12T13:35:33.217Z,30.47
2022-08-12T13:38:10.505Z,30.48
2022-08-12T13:40:56.068Z,31.40
2022-08-12T13:43:41.127Z,29.83
2022-08-12T13:46:12.453Z,29.86
2022-08-12T13:48:44.727Z,30.43
2022-08-12T13:51:13.690Z,31.33
2022-08-12T13:53:55.000Z,29.80
2022-08-12T13:56:34.682Z,30.33
2022-08-12T13:59:09.186Z,30.91
2022-08-12T14:01:50.376Z,31.07
2022-08-12T14:04:24.971Z,31.10
2022-08-12T14:06:54.727Z,31.12
2022-08-12T14:09:22.687Z,31.13
2022-08-12T14:12:24.300Z,30.93
2022-08-12T14:15:58.943Z,30.92
2022-08-12T14:19:25.016Z,30.90
2022-08-12T14:22:26.002Z,30.75
2022-08-12T14:25:57.175Z,30.91
2022-08-12T14:28:57.883Z,30.96
2022-08-12T14:34:56.527Z,30.97
2022-08-12T14:37:56.781Z,30.91
2022-08-12T14:44:57.601Z,30.77
2022-08-12T14:50:57.447Z,30.42
2022-08-12T15:08:06.553Z,29.11
2022-08-12T15:10:54.001Z,29.57
2022-08-12T15:13:43.357Z,29.29
2022-08-12T15:16:35.385Z,30.21
2022-08-12T15:19:12.649Z,29.99
2022-08-12T15:22:38.734Z,30.61
2022-08-12T15:24:39.177Z,30.60
2022-08-12T15:27:08.689Z,30.63
2022-08-12T15:29:37.428Z,30.55
2022-08-12T15:32:15.742Z,30.55
2022-08-12T15:34:43.967Z,30.50
2022-08-12T15:38:09.203Z,30.05
2022-08-12T15:40:30.078Z,30.53
2022-08-12T15:43:11.243Z,30.53
2022-08-12T15:45:50.871Z,30.31
2022-08-12T15:48:30.403Z,29.94
2022-08-12T15:50:58.850Z,29.08
2022-08-12T15:53:41.409Z,30.48
2022-08-12T15:56:12.824Z,30.45
2022-08-12T15:58:42.886Z,30.43
2022-08-12T16:01:14.899Z,30.44
2022-08-12T16:03:45.977Z,30.42
2022-08-12T16:06:52.055Z,30.37
2022-08-12T16:09:17.419Z,30.36
2022-08-12T16:12:03.781Z,30.37
2022-08-12T16:14:46.018Z,29.72
2022-08-12T16:21:51.761Z,29.69
2022-08-12T16:28:18.874Z,30.13
2022-08-12T16:30:54.172Z,30.18
2022-08-12T16:33:22.928Z,30.05
2022-08-12T16:36:04.689Z,30.09
2022-08-12T16:38:34.631Z,29.83
2022-08-12T16:41:07.226Z,29.77
2022-08-12T16:43:43.998Z,29.58
2022-08-12T16:46:32.287Z,29.33
2022-08-12T16:49:43.586Z,30.00
2022-08-12T16:52:14.405Z,29.80
2022-08-12T16:54:59.176Z,29.73
2022-08-12T16:58:30.383Z,29.94
2022-08-12T17:01:08.967Z,29.34
2022-08-12T17:03:47.122Z,29.84
2022-08-12T17:06:29.156Z,29.76
2022-08-12T17:09:40.226Z,29.52
2022-08-12T17:12:10.627Z,28.82
2022-08-12T17:20:29.642Z,28.24
2022-08-12T17:22:30.819Z,29.51
2022-08-12T17:25:58.034Z,29.26
2022-08-12T17:28:41.880Z,29.35
2022-08-12T17:31:16.423Z,29.34
2022-08-12T17:34:06.820Z,29.32
2022-08-12T17:37:02.830Z,29.27
2022-08-12T17:40:06.478Z,29.18
2022-08-12T17:42:32.638Z,29.11
2022-08-12T17:46:00.342Z,28.86
2022-08-12T17:51:49.969Z,27.77
2022-08-12T17:58:05.621Z,28.09
2022-08-12T18:00:42.572Z,28.57
2022-08-12T18:04:04.968Z,28.53
2022-08-12T18:06:14.574Z,28.44
2022-08-12T18:13:40.947Z,27.03
2022-08-12T18:20:19.075Z,27.11
2022-08-12T18:29:43.512Z,25.94
2022-08-12T18:32:53.711Z,26.18
2022-08-12T18:35:10.936Z,25.88
2022-08-12T18:37:42.592Z,26.71
2022-08-12T18:43:21.651Z,25.78
2022-08-12T18:45:57.627Z,27.16
2022-08-12T19:04:10.940Z,25.86
2022-08-12T19:07:05.290Z,25.46
2022-08-12T19:40:43.092Z,22.71
2022-08-12T19:43:20.667Z,21.97
2022-08-12T19:46:08.215Z,21.79
2022-08-12T19:49:49.726Z,21.57
2022-08-12T19:52:22.206Z,21.82
2022-08-12T19:54:56.118Z,22.70
2022-08-12T20:02:02.691Z,22.51
2022-08-12T20:24:22.077Z,19.96
2022-08-12T20:26:52.410Z,21.21
2022-08-12T20:29:21.175Z,20.45
2022-08-12T20:31:52.011Z,19.55
2022-08-12T20:34:21.306Z,20.90
2022-08-12T20:36:57.192Z,19.31
2022-08-12T20:39:52.965Z,20.05
2022-08-12T20:42:31.307Z,19.85
2022-08-12T20:45:00.894Z,19.12
2022-08-12T20:47:42.156Z,19.92
2022-08-12T20:50:15.879Z,20.28
2022-08-12T20:52:49.151Z,18.33
2022-08-12T20:55:21.607Z,20.00
2022-08-12T20:58:10.692Z,20.01
2022-08-12T21:00:40.687Z,19.26
2022-08-12T21:03:30.109Z,18.05
2022-08-12T21:06:19.707Z,19.30
2022-08-12T21:08:54.322Z,18.89
2022-08-12T21:11:24.678Z,18.09
2022-08-12T21:13:59.121Z,18.39
2022-08-12T21:16:35.443Z,18.52
2022-08-12T21:19:17.635Z,17.51
2022-08-12T21:21:58.758Z,18.85
2022-08-12T21:24:31.665Z,17.41
2022-08-12T21:27:07.496Z,17.69
2022-08-12T21:29:49.925Z,18.89
2022-08-12T21:32:46.780Z,17.17
2022-08-12T21:35:19.322Z,17.23
2022-08-12T21:37:53.005Z,18.43
2022-08-12T21:40:22.086Z,18.49
2022-08-12T21:43:08.272Z,17.73
2022-08-12T21:45:46.182Z,18.46
2022-08-12T21:48:28.419Z,18.37
2022-08-12T21:50:56.464Z,18.29
2022-08-12T21:54:05.843Z,17.57
2022-08-12T21:56:34.573Z,17.53
2022-08-12T21:59:04.357Z,17.94
2022-08-12T22:01:44.298Z,16.50
2022-08-12T22:04:35.449Z,17.09
2022-08-12T22:07:03.713Z,17.96
2022-08-12T22:09:43.068Z,17.92
2022-08-12T22:12:29.258Z,17.65
2022-08-12T22:14:58.592Z,17.83
2022-08-12T22:17:33.832Z,17.78
2022-08-12T22:20:17.947Z,16.62
2022-08-12T22:22:53.878Z,17.11
2022-08-12T22:25:27.787Z,17.62
2022-08-12T22:28:15.593Z,17.30
2022-08-12T22:31:02.428Z,17.56
2022-08-12T22:33:30.493Z,17.50
2022-08-12T22:36:29.220Z,17.43
2022-08-12T22:38:59.325Z,17.39
2022-08-12T22:41:45.436Z,17.36
2022-08-12T22:44:31.640Z,17.33
2022-08-12T22:47:53.185Z,17.26
2022-08-12T22:50:27.553Z,17.14
2022-08-12T22:53:15.014Z,17.16
2022-08-12T22:55:59.235Z,17.12
2022-08-12T22:58:33.406Z,17.07
2022-08-12T23:01:03.293Z,16.81
2022-08-12T23:03:49.226Z,16.98
2022-08-12T23:06:21.267Z,16.94
2022-08-12T23:08:49.841Z,16.91
2022-08-12T23:11:23.771Z,16.72
2022-08-12T23:13:56.844Z,16.87
2022-08-12T23:16:31.066Z,16.71
2022-08-12T23:19:09.689Z,16.78
2022-08-12T23:22:06.540Z,16.62
2022-08-12T23:24:30.336Z,16.71
2022-08-12T23:27:16.710Z,16.66
2022-08-12T23:29:59.375Z,16.62
2022-08-12T23:32:37.246Z,16.32
2022-08-12T23:35:08.311Z,16.48
2022-08-12T23:37:46.664Z,16.49
2022-08-12T23:40:18.264Z,16.47
2022-08-12T23:42:47.970Z,16.43
2022-08-12T23:45:19.166Z,16.41
2022-08-12T23:47:59.160Z,16.39
2022-08-12T23:50:34.434Z,16.35
2022-08-12T23:53:05.549Z,16.17
2022-08-12T23:55:40.762Z,16.17
2022-08-12T23:58:21.253Z,15.75
